createdAt,value
2022-12-17T00:00:38.219Z,15.57
2022-12-17T00:03:44.130Z,13.93
2022-12-17T00:06:30.120Z,13.25
2022-12-17T00:09:17.552Z,12.93
2022-12-17T00:12:02.980Z,13.00
2022-12-17T00:14:48.560Z,11.32
2022-12-17T00:17:34.208Z,11.70
2022-12-17T00:20:19.707Z,12.20
2022-12-17T00:23:05.545Z,12.23
2022-12-17T00:25:51.313Z,11.90
2022-12-17T00:28:37.480Z,11.00
2022-12-17T00:31:23.735Z,11.88
2022-12-17T00:34:10.533Z,10.77
2022-12-17T00:36:57.371Z,9.90
2022-12-17T00:39:42.929Z,12.10
2022-12-17T00:42:28.460Z,11.73
2022-12-17T00:45:14.101Z,12.40
2022-12-17T00:47:59.444Z,11.10
2022-12-17T00:50:44.938Z,13.25
2022-12-17T00:53:30.643Z,10.90
2022-12-17T00:56:16.127Z,12.98
2022-12-17T00:59:01.835Z,13.70
2022-12-17T01:01:47.396Z,16.35
2022-12-17T01:04:33.029Z,15.95
2022-12-17T01:07:18.615Z,13.00
2022-12-17T01:10:04.108Z,12.90
2022-12-17T01:12:49.543Z,11.85
2022-12-17T01:15:35.069Z,12.07
2022-12-17T01:18:20.863Z,11.70
2022-12-17T01:21:06.423Z,14.45
2022-12-17T01:23:52.179Z,14.52
2022-12-17T01:26:37.926Z,16.42
2022-12-17T01:29:23.701Z,13.70
2022-12-17T01:32:09.560Z,13.70
2022-12-17T01:34:56.067Z,12.38
2022-12-17T01:37:41.661Z,12.73
2022-12-17T01:40:28.670Z,11.10
2022-12-17T01:43:14.430Z,11.45
2022-12-17T01:46:05.465Z,11.75
2022-12-17T01:49:00.995Z,9.93
2022-12-17T01:51:47.975Z,11.05
2022-12-17T01:54:35.055Z,10.05
2022-12-17T01:57:23.075Z,9.93
2022-12-17T02:00:17.374Z,9.20
2022-12-17T02:03:06.079Z,10.60
2022-12-17T02:06:16.115Z,9.13
2022-12-17T02:09:10.812Z,9.23
2022-12-17T02:12:26.868Z,11.10
2022-12-17T02:15:22.470Z,11.35
2022-12-17T02:18:30.350Z,11.18
2022-12-17T02:21:17.510Z,12.52
2022-12-17T02:24:51.395Z,7.90
2022-12-17T02:27:40.174Z,7.88
2022-12-17T02:30:28.014Z,6.78
2022-12-17T02:33:14.555Z,4.53
2022-12-17T02:36:18.152Z,6.35
2022-12-17T02:39:03.797Z,5.35
2022-12-17T02:42:00.121Z,6.30
2022-12-17T02:44:47.707Z,4.63
2022-12-17T02:47:34.234Z,4.20
2022-12-17T02:50:20.298Z,5.03
2022-12-17T02:53:07.823Z,4.72
2022-12-17T02:55:54.858Z,4.72
2022-12-17T02:58:41.039Z,4.55
2022-12-17T03:01:27.202Z,4.55
2022-12-17T03:04:13.805Z,5.53
2022-12-17T03:06:59.494Z,4.43
2022-12-17T03:09:45.187Z,5.22
2022-12-17T03:12:31.278Z,3.90
2022-12-17T03:15:16.862Z,5.95
2022-12-17T03:18:02.679Z,7.00
2022-12-17T03:20:49.508Z,4.78
2022-12-17T03:23:35.436Z,5.40
2022-12-17T03:26:22.350Z,5.03
2022-12-17T03:29:08.113Z,4.75
2022-12-17T03:31:54.009Z,6.38
2022-12-17T03:34:39.561Z,6.45
2022-12-17T03:37:25.649Z,4.65
2022-12-17T03:40:11.121Z,4.43
2022-12-17T03:42:56.691Z,5.53
2022-12-17T03:45:42.838Z,4.18
2022-12-17T03:48:31.686Z,5.40
2022-12-17T03:51:38.472Z,4.43
2022-12-17T03:54:24.006Z,7.30
2022-12-17T03:57:15.788Z,6.75
2022-12-17T04:02:58.295Z,6.00
2022-12-17T04:05:44.399Z,6.07
2022-12-17T04:08:29.896Z,6.30
2022-12-17T04:11:15.454Z,7.20
2022-12-17T04:14:01.086Z,5.75
2022-12-17T04:16:46.816Z,6.78
2022-12-17T04:19:32.307Z,6.68
2022-12-17T04:22:17.737Z,6.68
2022-12-17T04:25:03.584Z,7.03
2022-12-17T04:27:49.267Z,7.30
2022-12-17T04:30:35.305Z,6.93
2022-12-17T04:33:21.020Z,8.35
2022-12-17T04:36:06.517Z,7.53
2022-12-17T04:38:52.109Z,8.60
2022-12-17T04:41:37.783Z,7.75
2022-12-17T04:44:23.208Z,6.85
2022-12-17T04:47:08.999Z,7.57
2022-12-17T04:49:55.597Z,10.18
2022-12-17T04:52:41.048Z,10.57
2022-12-17T04:55:26.645Z,9.68
2022-12-17T04:58:12.450Z,9.43
2022-12-17T05:00:57.978Z,8.10
2022-12-17T05:03:43.572Z,8.50
2022-12-17T05:06:29.362Z,7.55
2022-12-17T05:09:15.190Z,8.88
2022-12-17T05:12:00.637Z,7.45
2022-12-17T05:14:46.278Z,6.78
2022-12-17T05:17:32.122Z,6.78
2022-12-17T05:20:17.828Z,5.90
2022-12-17T05:23:03.402Z,6.15
2022-12-17T05:25:48.765Z,5.72
2022-12-17T05:28:34.920Z,6.78
2022-12-17T05:31:20.273Z,6.38
2022-12-17T05:34:05.853Z,5.72
2022-12-17T05:36:52.155Z,5.78
2022-12-17T05:39:37.674Z,5.85
2022-12-17T05:42:23.541Z,6.50
2022-12-17T05:45:09.091Z,7.00
2022-12-17T05:48:02.194Z,6.30
2022-12-17T05:50:47.804Z,6.57
2022-12-17T05:53:33.606Z,7.47
2022-12-17T05:56:19.251Z,7.20
2022-12-17T05:59:04.751Z,7.53
2022-12-17T06:01:50.422Z,7.57
2022-12-17T06:04:36.120Z,7.75
2022-12-17T06:07:21.717Z,8.48
2022-12-17T06:10:07.243Z,8.02
2022-12-17T06:12:52.714Z,8.18
2022-12-17T06:15:38.149Z,9.02
2022-12-17T06:18:23.724Z,9.30
2022-12-17T06:21:11.262Z,7.60
2022-12-17T06:23:56.877Z,8.82
2022-12-17T06:26:42.333Z,6.38
2022-12-17T06:29:28.102Z,8.13
2022-12-17T06:32:13.639Z,8.45
2022-12-17T06:34:59.171Z,7.20
2022-12-17T06:37:44.853Z,7.63
2022-12-17T06:40:30.807Z,8.63
2022-12-17T06:43:19.481Z,7.85
2022-12-17T06:46:05.376Z,8.05
2022-12-17T06:48:50.944Z,7.55
2022-12-17T06:51:36.570Z,8.52
2022-12-17T06:54:22.033Z,8.98
2022-12-17T06:57:07.596Z,8.82
2022-12-17T06:59:53.396Z,9.05
2022-12-17T07:02:39.235Z,9.48
2022-12-17T07:05:26.708Z,9.02
2022-12-17T07:08:17.505Z,8.48
2022-12-17T07:11:03.854Z,9.27
2022-12-17T07:13:49.516Z,9.40
2022-12-17T07:16:35.264Z,9.70
2022-12-17T07:19:26.886Z,9.90
2022-12-17T07:22:13.364Z,9.82
2022-12-17T07:24:59.001Z,9.43
2022-12-17T07:27:44.725Z,9.25
2022-12-17T07:30:30.895Z,10.27
2022-12-17T07:33:21.032Z,11.05
2022-12-17T07:36:06.618Z,7.97
2022-12-17T07:38:52.573Z,8.65
2022-12-17T07:41:38.110Z,7.45
2022-12-17T07:44:24.225Z,7.53
2022-12-17T07:47:10.200Z,6.03
2022-12-17T07:49:55.829Z,6.78
2022-12-17T07:52:41.316Z,6.38
2022-12-17T07:55:32.108Z,6.47
2022-12-17T07:58:25.696Z,6.47
2022-12-17T08:01:11.835Z,6.00
2022-12-17T08:03:57.400Z,5.60
2022-12-17T08:06:43.040Z,6.60
2022-12-17T08:09:28.633Z,6.45
2022-12-17T08:12:14.437Z,5.55
2022-12-17T08:15:00.468Z,5.22
2022-12-17T08:17:46.599Z,4.00
2022-12-17T08:20:32.283Z,5.30
2022-12-17T08:23:22.426Z,4.45
2022-12-17T08:26:08.589Z,3.95
2022-12-17T08:28:54.398Z,3.30
2022-12-17T08:31:42.364Z,2.95
2022-12-17T08:34:28.096Z,3.33
2022-12-17T08:37:13.683Z,3.20
2022-12-17T08:39:59.309Z,2.65
2022-12-17T08:42:45.131Z,2.72
2022-12-17T08:45:30.557Z,2.50
2022-12-17T08:48:26.370Z,2.42
2022-12-17T08:51:12.573Z,2.78
2022-12-17T08:53:58.434Z,2.30
2022-12-17T08:56:44.432Z,2.78
2022-12-17T08:59:30.089Z,2.60
2022-12-17T09:02:15.698Z,3.15
2022-12-17T09:05:01.472Z,2.45
2022-12-17T09:07:47.215Z,2.30
2022-12-17T09:10:33.223Z,3.03
2022-12-17T09:13:23.065Z,5.35
2022-12-17T09:16:15.285Z,4.18
2022-12-17T09:21:48.524Z,3.30
2022-12-17T09:24:34.755Z,3.35
2022-12-17T09:27:20.797Z,3.30
2022-12-17T09:30:06.496Z,3.30
2022-12-17T09:32:52.497Z,3.72
2022-12-17T09:35:38.343Z,3.75
2022-12-17T09:38:23.754Z,4.00
2022-12-17T09:41:10.558Z,5.50
2022-12-17T09:44:26.607Z,5.03
2022-12-17T09:47:39.073Z,4.28
2022-12-17T09:50:31.717Z,3.58
2022-12-17T09:53:20.845Z,4.47
2022-12-17T09:56:09.796Z,4.50
2022-12-17T09:58:57.980Z,5.45
2022-12-17T10:01:51.086Z,5.20
2022-12-17T10:04:59.283Z,5.25
2022-12-17T10:07:50.791Z,5.18
2022-12-17T10:10:41.623Z,4.93
2022-12-17T10:13:33.387Z,4.35
2022-12-17T10:16:20.009Z,4.60
2022-12-17T10:19:06.822Z,4.40
2022-12-17T10:21:56.894Z,5.22
2022-12-17T10:24:42.946Z,6.03
2022-12-17T10:27:29.500Z,4.53
2022-12-17T10:30:15.274Z,4.28
2022-12-17T10:33:01.278Z,5.05
2022-12-17T10:35:55.996Z,5.25
2022-12-17T10:38:45.431Z,4.07
2022-12-17T10:41:48.706Z,5.50
2022-12-17T10:44:41.272Z,4.70
2022-12-17T10:48:01.774Z,4.40
2022-12-17T10:50:50.658Z,5.20
2022-12-17T10:53:39.925Z,3.92
2022-12-17T10:56:25.961Z,4.35
2022-12-17T10:59:12.677Z,3.28
2022-12-17T11:02:00.463Z,2.70
2022-12-17T11:04:55.640Z,2.60
2022-12-17T11:07:55.841Z,3.25
2022-12-17T11:10:50.089Z,2.50
2022-12-17T11:13:46.694Z,3.05
2022-12-17T11:17:01.380Z,3.00
2022-12-17T11:20:30.186Z,3.92
2022-12-17T11:23:18.637Z,3.13
2022-12-17T11:26:24.741Z,3.95
2022-12-17T11:29:10.886Z,2.78
2022-12-17T11:32:24.831Z,2.90
2022-12-17T11:35:28.188Z,2.10
2022-12-17T11:38:22.784Z,2.67
2022-12-17T11:41:15.614Z,2.03
2022-12-17T11:44:12.703Z,2.80
2022-12-17T11:47:07.772Z,3.25
2022-12-17T11:50:13.854Z,2.85
2022-12-17T11:53:14.344Z,3.10
2022-12-17T11:56:18.125Z,2.45
2022-12-17T11:59:12.663Z,3.05
2022-12-17T12:02:20.420Z,3.03
2022-12-17T12:05:15.196Z,2.90
2022-12-17T12:08:16.948Z,3.30
2022-12-17T12:11:15.105Z,3.40
2022-12-17T12:14:12.230Z,3.75
2022-12-17T12:17:29.605Z,3.28
2022-12-17T12:20:42.822Z,2.40
2022-12-17T12:23:48.811Z,2.78
2022-12-17T12:26:41.512Z,3.47
2022-12-17T12:29:35.858Z,2.47
2022-12-17T12:32:35.830Z,2.97
2022-12-17T12:35:23.658Z,3.40
2022-12-17T12:38:09.576Z,3.70
2022-12-17T12:41:19.504Z,3.25
2022-12-17T12:44:14.014Z,3.47
2022-12-17T12:47:24.398Z,4.45
2022-12-17T12:50:30.468Z,4.43
2022-12-17T12:53:18.210Z,3.47
2022-12-17T12:56:03.889Z,3.85
2022-12-17T12:58:52.783Z,3.75
2022-12-17T13:01:39.536Z,4.30
2022-12-17T13:05:00.177Z,3.97
2022-12-17T13:07:29.744Z,4.07
2022-12-17T13:09:58.723Z,4.20
2022-12-17T13:12:25.912Z,3.95
2022-12-17T13:14:59.028Z,3.58
2022-12-17T13:17:58.425Z,4.18
2022-12-17T13:20:34.388Z,4.57
2022-12-17T13:23:09.202Z,5.07
2022-12-17T13:25:37.143Z,4.93
2022-12-17T13:28:05.446Z,8.57
2022-12-17T13:30:39.118Z,5.10
2022-12-17T13:33:41.741Z,4.97
2022-12-17T13:36:17.498Z,4.80
2022-12-17T13:39:00.208Z,3.42
2022-12-17T13:41:31.023Z,4.78
2022-12-17T13:44:02.407Z,4.32
2022-12-17T13:46:35.009Z,5.38
2022-12-17T13:49:06.133Z,4.07
2022-12-17T13:51:35.867Z,4.63
2022-12-17T13:54:04.834Z,4.50
2022-12-17T13:56:37.481Z,5.20
2022-12-17T13:59:09.603Z,5.07
2022-12-17T14:01:48.174Z,4.55
2022-12-17T14:04:30.109Z,4.68
2022-12-17T14:07:02.934Z,5.80
2022-12-17T14:09:37.477Z,4.60
2022-12-17T14:12:22.161Z,4.57
2022-12-17T14:14:56.112Z,5.68
2022-12-17T14:17:38.275Z,5.10
2022-12-17T14:20:11.723Z,4.95
2022-12-17T14:22:51.484Z,4.13
2022-12-17T14:25:19.089Z,5.57
2022-12-17T14:27:57.070Z,5.20
2022-12-17T14:31:24.273Z,5.05
2022-12-17T14:33:38.219Z,5.43
2022-12-17T14:36:16.798Z,4.47
2022-12-17T14:39:01.969Z,7.28
2022-12-17T14:41:55.739Z,7.15
2022-12-17T14:44:31.878Z,6.30
2022-12-17T14:47:27.440Z,6.68
2022-12-17T14:50:09.738Z,6.03
2022-12-17T14:53:26.240Z,6.20
2022-12-17T14:55:58.276Z,7.35
2022-12-17T14:58:30.208Z,6.45
2022-12-17T15:01:11.085Z,5.30
2022-12-17T15:03:49.204Z,6.40
2022-12-17T15:06:20.885Z,6.03
2022-12-17T15:08:50.743Z,6.50
2022-12-17T15:11:22.244Z,6.03
2022-12-17T15:13:54.547Z,5.55
2022-12-17T15:16:23.823Z,5.80
2022-12-17T15:19:03.908Z,7.07
2022-12-17T15:21:31.838Z,6.50
2022-12-17T15:23:59.234Z,5.97
2022-12-17T15:26:26.563Z,5.70
2022-12-17T15:28:54.905Z,5.78
2022-12-17T15:31:26.009Z,6.47
2022-12-17T15:33:57.442Z,5.70
2022-12-17T15:36:24.701Z,7.03
2022-12-17T15:38:52.677Z,6.45
2022-12-17T15:41:41.359Z,6.20
2022-12-17T15:44:09.195Z,7.43
2022-12-17T15:46:36.471Z,6.78
2022-12-17T15:49:03.952Z,5.50
2022-12-17T15:51:32.441Z,6.22
2022-12-17T15:53:59.817Z,5.25
2022-12-17T15:56:28.615Z,6.18
2022-12-17T15:58:59.350Z,4.78
2022-12-17T16:01:26.847Z,6.13
2022-12-17T16:03:54.453Z,5.50
2022-12-17T16:06:21.732Z,5.70
2022-12-17T16:08:51.901Z,5.60
2022-12-17T16:11:19.112Z,5.55
2022-12-17T16:13:46.182Z,5.40
2022-12-17T16:16:13.529Z,6.18
2022-12-17T16:18:41.078Z,5.70
2022-12-17T16:21:09.133Z,5.85
2022-12-17T16:23:36.718Z,7.20
2022-12-17T16:26:09.799Z,6.03
2022-12-17T16:31:15.822Z,5.53
2022-12-17T16:33:44.918Z,5.75
2022-12-17T16:36:14.143Z,6.50
2022-12-17T16:38:47.100Z,7.05
2022-12-17T16:41:17.470Z,7.10
2022-12-17T16:43:50.802Z,6.20
2022-12-17T16:46:35.802Z,6.60
2022-12-17T16:49:06.953Z,7.50
2022-12-17T16:51:34.402Z,4.57
2022-12-17T16:54:05.836Z,6.40
2022-12-17T16:56:39.433Z,7.20
2022-12-17T16:59:08.422Z,6.53
2022-12-17T17:01:36.644Z,5.82
2022-12-17T17:04:05.295Z,6.43
2022-12-17T17:06:34.112Z,6.25
2022-12-17T17:09:04.295Z,5.55
2022-12-17T17:11:31.602Z,7.10
2022-12-17T17:13:58.884Z,7.22
2022-12-17T17:16:26.903Z,7.32
2022-12-17T17:18:54.231Z,9.70
2022-12-17T17:21:25.970Z,12.85
2022-12-17T17:24:01.678Z,13.05
2022-12-17T17:26:30.884Z,12.13
2022-12-17T17:28:58.518Z,12.35
2022-12-17T17:31:46.483Z,13.15
2022-12-17T17:34:15.008Z,13.88
2022-12-17T17:36:42.886Z,11.02
2022-12-17T17:39:10.244Z,10.00
2022-12-17T17:41:37.711Z,11.73
2022-12-17T17:44:07.684Z,9.38
2022-12-17T17:46:35.691Z,10.25
2022-12-17T17:49:04.555Z,9.57
2022-12-17T17:52:08.006Z,9.90
2022-12-17T17:54:21.758Z,10.30
2022-12-17T17:56:48.956Z,8.13
2022-12-17T17:59:21.416Z,10.63
2022-12-17T18:01:50.635Z,9.68
2022-12-17T18:04:20.873Z,8.50
2022-12-17T18:07:23.038Z,9.63
2022-12-17T18:09:36.073Z,9.93
2022-12-17T18:12:23.304Z,8.20
2022-12-17T18:15:14.388Z,8.13
2022-12-17T18:17:37.598Z,8.45
2022-12-17T18:20:05.266Z,8.43
2022-12-17T18:22:32.367Z,8.52
2022-12-17T18:24:59.473Z,8.20
2022-12-17T18:27:26.636Z,7.57
2022-12-17T18:29:53.750Z,7.78
2022-12-17T18:32:20.942Z,8.40
2022-12-17T18:34:48.155Z,9.35
2022-12-17T18:37:15.565Z,7.28
2022-12-17T18:39:42.795Z,7.30
2022-12-17T18:42:28.759Z,7.40
2022-12-17T18:44:55.939Z,6.47
2022-12-17T18:47:23.373Z,8.25
2022-12-17T18:49:50.690Z,8.10
2022-12-17T18:52:17.858Z,8.13
2022-12-17T18:54:45.441Z,7.78
2022-12-17T18:57:13.214Z,8.60
2022-12-17T18:59:41.287Z,8.27
2022-12-17T19:02:15.732Z,7.80
2022-12-17T19:04:43.035Z,8.88
2022-12-17T19:07:10.600Z,9.02
2022-12-17T19:09:40.475Z,9.20
2022-12-17T19:12:09.656Z,9.30
2022-12-17T19:14:37.264Z,7.65
2022-12-17T19:17:06.120Z,7.47
2022-12-17T19:19:33.701Z,9.40
2022-12-17T19:22:01.085Z,9.43
2022-12-17T19:24:28.500Z,8.90
2022-12-17T19:26:55.927Z,7.82
2022-12-17T19:29:23.083Z,7.53
2022-12-17T19:31:50.660Z,7.70
2022-12-17T19:34:19.520Z,7.60
2022-12-17T19:36:47.066Z,9.77
2022-12-17T19:39:17.089Z,7.32
2022-12-17T19:41:44.561Z,8.25
2022-12-17T19:44:14.651Z,8.00
2022-12-17T19:46:43.062Z,6.95
2022-12-17T19:49:15.720Z,8.07
2022-12-17T19:51:44.351Z,7.78
2022-12-17T19:54:13.835Z,8.07
2022-12-17T19:56:42.164Z,7.82
2022-12-17T19:59:10.681Z,7.97
2022-12-17T20:01:43.338Z,7.50
2022-12-17T20:04:13.415Z,7.97
2022-12-17T20:06:42.510Z,8.40
2022-12-17T20:09:09.697Z,8.40
2022-12-17T20:11:37.517Z,9.30
2022-12-17T20:14:20.966Z,8.68
2022-12-17T20:16:59.051Z,9.68
2022-12-17T20:19:31.480Z,13.50
2022-12-17T20:22:00.169Z,15.35
2022-12-17T20:24:31.550Z,17.35
2022-12-17T20:29:27.527Z,16.90
2022-12-17T20:31:55.512Z,14.65
2022-12-17T20:34:23.707Z,14.05
2022-12-17T20:36:52.509Z,12.73
2022-12-17T20:39:26.246Z,13.48
2022-12-17T20:41:54.595Z,15.63
2022-12-17T20:44:21.795Z,16.15
2022-12-17T20:46:49.067Z,15.32
2022-12-17T20:49:16.229Z,25.20
2022-12-17T20:51:43.748Z,19.88
2022-12-17T20:54:11.508Z,16.42
2022-12-17T20:56:39.922Z,14.57
2022-12-17T20:59:11.480Z,17.10
2022-12-17T21:01:38.852Z,16.10
2022-12-17T21:04:07.573Z,14.77
2022-12-17T21:06:40.419Z,16.00
2022-12-17T21:09:08.544Z,16.75
2022-12-17T21:11:37.658Z,17.50
2022-12-17T21:14:07.523Z,18.45
2022-12-17T21:16:35.814Z,19.52
2022-12-17T21:19:04.410Z,17.75
2022-12-17T21:21:35.113Z,19.58
2022-12-17T21:24:02.394Z,17.65
2022-12-17T21:26:31.796Z,19.80
2022-12-17T21:28:59.900Z,18.60
2022-12-17T21:31:29.844Z,16.73
2022-12-17T21:33:59.867Z,17.85
2022-12-17T21:36:29.184Z,16.75
2022-12-17T21:38:56.453Z,18.70
2022-12-17T21:41:29.322Z,17.40
2022-12-17T21:43:59.270Z,18.08
2022-12-17T21:46:27.587Z,15.75
2022-12-17T21:48:56.689Z,17.00
2022-12-17T21:51:24.798Z,15.85
2022-12-17T21:53:58.023Z,15.63
2022-12-17T21:56:25.855Z,17.08
2022-12-17T21:59:00.968Z,15.82
2022-12-17T22:01:33.663Z,17.45
2022-12-17T22:04:03.730Z,16.13
2022-12-17T22:06:35.973Z,16.55
2022-12-17T22:09:20.857Z,17.83
2022-12-17T22:12:21.117Z,17.58
2022-12-17T22:14:48.476Z,15.88
2022-12-17T22:17:16.281Z,16.98
2022-12-17T22:19:43.516Z,17.15
2022-12-17T22:22:10.840Z,13.23
2022-12-17T22:24:38.014Z,17.35
2022-12-17T22:27:09.412Z,16.67
2022-12-17T22:29:55.699Z,16.45
2022-12-17T22:32:41.305Z,17.95
2022-12-17T22:36:06.438Z,14.82
2022-12-17T22:39:59.384Z,16.70
2022-12-17T22:44:30.801Z,15.10
2022-12-17T22:44:38.491Z,14.77
2022-12-17T22:46:18.513Z,19.70
2022-12-17T22:48:45.824Z,17.02
2022-12-17T22:51:20.344Z,15.93
2022-12-17T22:54:04.998Z,14.65
2022-12-17T22:56:50.840Z,17.40
2022-12-17T22:59:20.862Z,17.60
2022-12-17T23:01:48.104Z,18.42
2022-12-17T23:04:16.936Z,15.05
2022-12-17T23:06:45.813Z,16.58
2022-12-17T23:09:15.957Z,16.83
2022-12-17T23:11:43.330Z,16.73
2022-12-17T23:14:10.836Z,16.42
2022-12-17T23:16:39.261Z,18.95
2022-12-17T23:19:07.540Z,16.42
2022-12-17T23:21:35.359Z,15.68
2022-12-17T23:24:02.991Z,21.52
2022-12-17T23:26:35.922Z,16.38
2022-12-17T23:29:07.482Z,17.25
2022-12-17T23:31:37.552Z,17.63
2022-12-17T23:34:05.537Z,16.33
2022-12-17T23:36:33.080Z,19.83
2022-12-17T23:39:00.573Z,15.43
2022-12-17T23:41:29.834Z,17.48
2022-12-17T23:43:57.754Z,15.02
2022-12-17T23:46:27.451Z,18.08
2022-12-17T23:48:55.058Z,17.42
2022-12-17T23:51:23.809Z,15.98
2022-12-17T23:53:51.621Z,17.80
2022-12-17T23:56:24.584Z,14.57
2022-12-17T23:58:57.658Z,17.38
